sensor_id;sensor_type;location;lat;lon;timestamp;pressure;altitude;pressure_sealevel;temperature;humidity
13367;BME280;6752;52.612;13.630;2024-01-25T00:02:15;100804.92;;;8.74;100.00
13367;BME280;6752;52.612;13.630;2024-01-25T00:07:17;100807.42;;;8.69;100.00
13367;BME280;6752;52.612;13.630;2024-01-25T00:12:20;100820.84;;;8.77;100.00
13367;BME280;6752;52.612;13.630;2024-01-25T00:17:22;100822.00;;;8.79;100.00
13367;BME280;6752;52.612;13.630;2024-01-25T00:22:24;100815.63;;;8.82;100.00
13367;BME280;6752;52.612;13.630;2024-01-25T00:27:27;100846.05;;;8.85;99.70
13367;BME280;6752;52.612;13.630;2024-01-25T00:32:29;100837.27;;;8.80;99.94
13367;BME280;6752;52.612;13.630;2024-01-25T00:37:32;100818.61;;;8.70;100.00
13367;BME280;6752;52.612;13.630;2024-01-25T00:42:38;100845.62;;;8.78;100.00
13367;BME280;6752;52.612;13.630;2024-01-25T00:47:39;100846.83;;;8.69;100.00
13367;BME280;6752;52.612;13.630;2024-01-25T00:52:42;100848.82;;;8.71;100.00
13367;BME280;6752;52.612;13.630;2024-01-25T00:57:44;100846.31;;;8.73;100.00
13367;BME280;6752;52.612;13.630;2024-01-25T01:02:46;100843.48;;;8.70;100.00
13367;BME280;6752;52.612;13.630;2024-01-25T01:07:50;100839.61;;;8.65;100.00
13367;BME280;6752;52.612;13.630;2024-01-25T01:12:52;100835.64;;;8.68;100.00
13367;BME280;6752;52.612;13.630;2024-01-25T01:17:55;100842.86;;;8.71;100.00
13367;BME280;6752;52.612;13.630;2024-01-25T01:23:01;100850.48;;;8.65;100.00
13367;BME280;6752;52.612;13.630;2024-01-25T01:27:59;100862.27;;;8.55;100.00
13367;BME280;6752;52.612;13.630;2024-01-25T01:33:02;100876.59;;;8.56;100.00
13367;BME280;6752;52.612;13.630;2024-01-25T01:38:04;100880.03;;;8.54;100.00
13367;BME280;6752;52.612;13.630;2024-01-25T01:43:07;100887.88;;;8.60;100.00
13367;BME280;6752;52.612;13.630;2024-01-25T01:48:09;100897.83;;;8.67;100.00
13367;BME280;6752;52.612;13.630;2024-01-25T01:53:11;100888.28;;;8.54;100.00
13367;BME280;6752;52.612;13.630;2024-01-25T01:58:14;100876.02;;;8.50;100.00
13367;BME280;6752;52.612;13.630;2024-01-25T02:03:20;100885.92;;;8.44;100.00
13367;BME280;6752;52.612;13.630;2024-01-25T02:08:22;100904.28;;;8.56;100.00
13367;BME280;6752;52.612;13.630;2024-01-25T02:13:24;100904.11;;;8.47;100.00
13367;BME280;6752;52.612;13.630;2024-01-25T02:18:26;100907.54;;;8.41;100.00
13367;BME280;6752;52.612;13.630;2024-01-25T02:23:29;100902.70;;;8.34;100.00
13367;BME280;6752;52.612;13.630;2024-01-25T02:28:34;100900.21;;;8.39;100.00
13367;BME280;6752;52.612;13.630;2024-01-25T02:33:36;100891.67;;;8.45;100.00
13367;BME280;6752;52.612;13.630;2024-01-25T02:38:39;100896.45;;;8.40;100.00
13367;BME280;6752;52.612;13.630;2024-01-25T02:43:41;100897.61;;;8.41;100.00
13367;BME280;6752;52.612;13.630;2024-01-25T02:48:43;100894.03;;;8.34;100.00
13367;BME280;6752;52.612;13.630;2024-01-25T02:53:46;100898.00;;;8.35;100.00
13367;BME280;6752;52.612;13.630;2024-01-25T02:58:48;100899.42;;;8.31;100.00
13367;BME280;6752;52.612;13.630;2024-01-25T03:03:51;100889.08;;;8.30;100.00
13367;BME280;6752;52.612;13.630;2024-01-25T03:08:53;100893.98;;;8.31;100.00
13367;BME280;6752;52.612;13.630;2024-01-25T03:13:55;100907.56;;;8.31;100.00
13367;BME280;6752;52.612;13.630;2024-01-25T03:18:58;100913.36;;;8.24;100.00
13367;BME280;6752;52.612;13.630;2024-01-25T03:24:00;100915.55;;;8.25;100.00
13367;BME280;6752;52.612;13.630;2024-01-25T03:29:05;100926.41;;;8.25;100.00
13367;BME280;6752;52.612;13.630;2024-01-25T03:34:07;100934.45;;;8.22;100.00
13367;BME280;6752;52.612;13.630;2024-01-25T03:39:10;100933.25;;;8.28;100.00
13367;BME280;6752;52.612;13.630;2024-01-25T03:44:12;100921.61;;;8.24;100.00
13367;BME280;6752;52.612;13.630;2024-01-25T03:49:14;100932.16;;;8.26;100.00
13367;BME280;6752;52.612;13.630;2024-01-25T03:54:17;100947.69;;;8.18;100.00
13367;BME280;6752;52.612;13.630;2024-01-25T03:59:19;100960.00;;;8.03;100.00
13367;BME280;6752;52.612;13.630;2024-01-25T04:09:39;100964.34;;;7.98;100.00
13367;BME280;6752;52.612;13.630;2024-01-25T04:14:41;100964.48;;;8.04;100.00
13367;BME280;6752;52.612;13.630;2024-01-25T04:19:44;100970.62;;;8.01;100.00
13367;BME280;6752;52.612;13.630;2024-01-25T04:24:46;100972.09;;;8.01;100.00
13367;BME280;6752;52.612;13.630;2024-01-25T04:29:48;100971.63;;;8.05;100.00
13367;BME280;6752;52.612;13.630;2024-01-25T04:34:51;100991.81;;;7.99;100.00
13367;BME280;6752;52.612;13.630;2024-01-25T04:39:53;100994.03;;;8.03;100.00
13367;BME280;6752;52.612;13.630;2024-01-25T04:44:55;101008.30;;;7.83;100.00
13367;BME280;6752;52.612;13.630;2024-01-25T04:49:58;101007.60;;;7.89;100.00
13367;BME280;6752;52.612;13.630;2024-01-25T04:55:00;101002.25;;;7.84;100.00
13367;BME280;6752;52.612;13.630;2024-01-25T05:00:03;101012.83;;;7.79;100.00
13367;BME280;6752;52.612;13.630;2024-01-25T05:05:05;101034.72;;;7.85;100.00
13367;BME280;6752;52.612;13.630;2024-01-25T05:10:07;101025.09;;;7.83;100.00
13367;BME280;6752;52.612;13.630;2024-01-25T05:15:10;101026.30;;;7.80;100.00
13367;BME280;6752;52.612;13.630;2024-01-25T05:20:12;101046.16;;;7.81;100.00
13367;BME280;6752;52.612;13.630;2024-01-25T05:25:15;101058.48;;;7.72;100.00
13367;BME280;6752;52.612;13.630;2024-01-25T05:30:17;101050.23;;;7.81;100.00
13367;BME280;6752;52.612;13.630;2024-01-25T05:35:19;101072.42;;;7.80;100.00
13367;BME280;6752;52.612;13.630;2024-01-25T05:40:22;101079.27;;;7.83;100.00
13367;BME280;6752;52.612;13.630;2024-01-25T05:45:24;101080.83;;;7.82;100.00
13367;BME280;6752;52.612;13.630;2024-01-25T05:50:26;101092.01;;;7.76;100.00
13367;BME280;6752;52.612;13.630;2024-01-25T05:55:29;101100.92;;;7.80;100.00
13367;BME280;6752;52.612;13.630;2024-01-25T06:00:32;101114.87;;;7.77;100.00
13367;BME280;6752;52.612;13.630;2024-01-25T06:05:34;101120.70;;;7.81;100.00
13367;BME280;6752;52.612;13.630;2024-01-25T06:10:36;101123.73;;;7.75;100.00
13367;BME280;6752;52.612;13.630;2024-01-25T06:15:39;101135.75;;;7.77;100.00
13367;BME280;6752;52.612;13.630;2024-01-25T06:20:41;101146.18;;;7.76;100.00
13367;BME280;6752;52.612;13.630;2024-01-25T06:25:44;101148.70;;;7.78;100.00
13367;BME280;6752;52.612;13.630;2024-01-25T06:30:46;101137.30;;;7.82;100.00
13367;BME280;6752;52.612;13.630;2024-01-25T06:35:48;101135.27;;;7.70;100.00
13367;BME280;6752;52.612;13.630;2024-01-25T06:40:51;101151.58;;;7.73;100.00
13367;BME280;6752;52.612;13.630;2024-01-25T06:45:53;101185.66;;;7.79;100.00
13367;BME280;6752;52.612;13.630;2024-01-25T06:50:56;101175.55;;;7.80;100.00
13367;BME280;6752;52.612;13.630;2024-01-25T06:55:58;101175.58;;;7.73;100.00
13367;BME280;6752;52.612;13.630;2024-01-25T07:01:00;101199.42;;;7.77;100.00
13367;BME280;6752;52.612;13.630;2024-01-25T07:06:03;101213.77;;;7.71;100.00
13367;BME280;6752;52.612;13.630;2024-01-25T07:11:05;101217.87;;;7.75;100.00
13367;BME280;6752;52.612;13.630;2024-01-25T07:16:07;101230.37;;;7.72;100.00
13367;BME280;6752;52.612;13.630;2024-01-25T07:21:10;101238.13;;;7.75;100.00
13367;BME280;6752;52.612;13.630;2024-01-25T07:26:16;101235.93;;;7.75;100.00
13367;BME280;6752;52.612;13.630;2024-01-25T07:31:14;101248.66;;;7.74;100.00
13367;BME280;6752;52.612;13.630;2024-01-25T07:36:17;101248.70;;;7.70;100.00
13367;BME280;6752;52.612;13.630;2024-01-25T07:41:21;101253.15;;;7.75;100.00
13367;BME280;6752;52.612;13.630;2024-01-25T07:46:23;101260.20;;;7.80;100.00
13367;BME280;6752;52.612;13.630;2024-01-25T07:51:26;101263.06;;;7.75;100.00
13367;BME280;6752;52.612;13.630;2024-01-25T07:56:28;101278.14;;;7.70;100.00
13367;BME280;6752;52.612;13.630;2024-01-25T08:01:31;101278.09;;;7.74;100.00
13367;BME280;6752;52.612;13.630;2024-01-25T08:06:33;101277.33;;;7.80;100.00
13367;BME280;6752;52.612;13.630;2024-01-25T08:11:36;101287.67;;;7.73;100.00
13367;BME280;6752;52.612;13.630;2024-01-25T08:16:38;101285.63;;;7.68;100.00
13367;BME280;6752;52.612;13.630;2024-01-25T08:21:44;101328.09;;;7.76;100.00
13367;BME280;6752;52.612;13.630;2024-01-25T08:26:44;101348.87;;;7.76;100.00
13367;BME280;6752;52.612;13.630;2024-01-25T08:31:46;101349.76;;;7.80;100.00
13367;BME280;6752;52.612;13.630;2024-01-25T08:36:49;101337.73;;;7.78;100.00
13367;BME280;6752;52.612;13.630;2024-01-25T08:41:51;101341.25;;;7.75;100.00
13367;BME280;6752;52.612;13.630;2024-01-25T08:46:53;101337.88;;;7.73;100.00
13367;BME280;6752;52.612;13.630;2024-01-25T08:51:56;101356.27;;;7.75;100.00
13367;BME280;6752;52.612;13.630;2024-01-25T08:56:58;101359.13;;;7.77;100.00
13367;BME280;6752;52.612;13.630;2024-01-25T09:02:00;101352.64;;;7.82;100.00
13367;BME280;6752;52.612;13.630;2024-01-25T09:07:03;101352.73;;;7.89;100.00
13367;BME280;6752;52.612;13.630;2024-01-25T09:12:05;101372.72;;;7.92;100.00
13367;BME280;6752;52.612;13.630;2024-01-25T09:17:08;101378.47;;;8.00;100.00
13367;BME280;6752;52.612;13.630;2024-01-25T09:22:10;101381.28;;;7.92;100.00
13367;BME280;6752;52.612;13.630;2024-01-25T09:27:13;101387.74;;;7.84;100.00
13367;BME280;6752;52.612;13.630;2024-01-25T09:32:16;101395.69;;;8.00;100.00
13367;BME280;6752;52.612;13.630;2024-01-25T09:37:18;101397.94;;;7.96;100.00
13367;BME280;6752;52.612;13.630;2024-01-25T09:42:20;101404.87;;;7.92;100.00
13367;BME280;6752;52.612;13.630;2024-01-25T09:47:23;101406.38;;;8.09;100.00
13367;BME280;6752;52.612;13.630;2024-01-25T09:52:25;101420.08;;;8.04;100.00
13367;BME280;6752;52.612;13.630;2024-01-25T09:57:28;101416.44;;;8.19;100.00
13367;BME280;6752;52.612;13.630;2024-01-25T10:02:30;101426.98;;;8.18;100.00
13367;BME280;6752;52.612;13.630;2024-01-25T10:07:42;101415.41;;;8.20;100.00
13367;BME280;6752;52.612;13.630;2024-01-25T10:17:51;101428.50;;;8.43;100.00
13367;BME280;6752;52.612;13.630;2024-01-25T10:22:54;101448.08;;;8.45;100.00
13367;BME280;6752;52.612;13.630;2024-01-25T10:27:57;101451.32;;;8.26;100.00
13367;BME280;6752;52.612;13.630;2024-01-25T10:32:58;101460.91;;;8.29;100.00
13367;BME280;6752;52.612;13.630;2024-01-25T10:38:01;101458.40;;;8.35;100.00
13367;BME280;6752;52.612;13.630;2024-01-25T10:43:03;101476.22;;;8.49;100.00
13367;BME280;6752;52.612;13.630;2024-01-25T10:48:06;101461.70;;;8.64;100.00
13367;BME280;6752;52.612;13.630;2024-01-25T10:53:08;101472.99;;;8.49;100.00
13367;BME280;6752;52.612;13.630;2024-01-25T10:58:12;101468.09;;;8.56;100.00
13367;BME280;6752;52.612;13.630;2024-01-25T11:03:12;101472.16;;;8.41;100.00
13367;BME280;6752;52.612;13.630;2024-01-25T11:08:18;101490.94;;;8.47;100.00
13367;BME280;6752;52.612;13.630;2024-01-25T11:13:26;101494.27;;;8.45;100.00
13367;BME280;6752;52.612;13.630;2024-01-25T11:18:28;101494.27;;;8.45;100.00
13367;BME280;6752;52.612;13.630;2024-01-25T11:23:31;101504.08;;;8.32;100.00
13367;BME280;6752;52.612;13.630;2024-01-25T11:28:40;101495.16;;;8.64;100.00
13367;BME280;6752;52.612;13.630;2024-01-25T11:33:38;101489.30;;;9.04;100.00
13367;BME280;6752;52.612;13.630;2024-01-25T11:38:40;101507.19;;;8.73;100.00
13367;BME280;6752;52.612;13.630;2024-01-25T11:43:43;101503.35;;;8.67;100.00
13367;BME280;6752;52.612;13.630;2024-01-25T11:48:45;101492.52;;;8.85;100.00
13367;BME280;6752;52.612;13.630;2024-01-25T11:53:50;101497.69;;;8.66;100.00
13367;BME280;6752;52.612;13.630;2024-01-25T11:58:52;101502.14;;;8.63;100.00
13367;BME280;6752;52.612;13.630;2024-01-25T12:03:55;101504.62;;;8.83;100.00
13367;BME280;6752;52.612;13.630;2024-01-25T12:09:05;101506.02;;;8.86;100.00
13367;BME280;6752;52.612;13.630;2024-01-25T12:13:59;101510.60;;;9.00;100.00
13367;BME280;6752;52.612;13.630;2024-01-25T12:19:02;101500.08;;;8.97;100.00
13367;BME280;6752;52.612;13.630;2024-01-25T12:24:05;101505.70;;;8.78;100.00
13367;BME280;6752;52.612;13.630;2024-01-25T12:29:06;101502.03;;;8.85;100.00
13367;BME280;6752;52.612;13.630;2024-01-25T12:34:15;101495.09;;;9.08;100.00
13367;BME280;6752;52.612;13.630;2024-01-25T12:39:20;101497.11;;;9.28;100.00
13367;BME280;6752;52.612;13.630;2024-01-25T12:44:22;101504.77;;;9.03;100.00
13367;BME280;6752;52.612;13.630;2024-01-25T12:49:29;101503.94;;;9.03;99.66
13367;BME280;6752;52.612;13.630;2024-01-25T12:54:27;101500.33;;;8.92;98.35
13367;BME280;6752;52.612;13.630;2024-01-25T12:59:30;101499.82;;;9.00;97.88
13367;BME280;6752;52.612;13.630;2024-01-25T13:04:32;101497.05;;;9.14;98.87
13367;BME280;6752;52.612;13.630;2024-01-25T13:09:34;101506.62;;;9.10;99.62
13367;BME280;6752;52.612;13.630;2024-01-25T13:14:37;101496.17;;;9.21;100.00
13367;BME280;6752;52.612;13.630;2024-01-25T13:19:39;101504.30;;;9.07;100.00
13367;BME280;6752;52.612;13.630;2024-01-25T13:24:41;101497.75;;;9.02;100.00
13367;BME280;6752;52.612;13.630;2024-01-25T13:29:44;101500.14;;;9.01;100.00
13367;BME280;6752;52.612;13.630;2024-01-25T13:34:46;101494.48;;;9.10;100.00
13367;BME280;6752;52.612;13.630;2024-01-25T13:39:49;101513.11;;;9.09;100.00
13367;BME280;6752;52.612;13.630;2024-01-25T13:44:51;101506.63;;;9.21;100.00
13367;BME280;6752;52.612;13.630;2024-01-25T13:49:53;101514.37;;;9.10;98.79
13367;BME280;6752;52.612;13.630;2024-01-25T13:54:56;101515.66;;;8.89;98.99
13367;BME280;6752;52.612;13.630;2024-01-25T13:59:58;101523.12;;;8.69;99.60
13367;BME280;6752;52.612;13.630;2024-01-25T14:05:00;101531.73;;;8.50;100.00
13367;BME280;6752;52.612;13.630;2024-01-25T14:10:03;101547.95;;;8.43;100.00
13367;BME280;6752;52.612;13.630;2024-01-25T14:15:05;101547.73;;;8.30;100.00
13367;BME280;6752;52.612;13.630;2024-01-25T14:20:07;101555.70;;;8.20;100.00
13367;BME280;6752;52.612;13.630;2024-01-25T14:25:10;101558.73;;;8.14;100.00
13367;BME280;6752;52.612;13.630;2024-01-25T14:30:12;101545.86;;;8.00;100.00
13367;BME280;6752;52.612;13.630;2024-01-25T14:35:14;101562.56;;;8.05;100.00
13367;BME280;6752;52.612;13.630;2024-01-25T14:40:17;101553.72;;;8.03;100.00
13367;BME280;6752;52.612;13.630;2024-01-25T14:45:19;101577.45;;;7.97;100.00
13367;BME280;6752;52.612;13.630;2024-01-25T14:50:22;101575.77;;;8.08;100.00
13367;BME280;6752;52.612;13.630;2024-01-25T14:55:24;101576.84;;;8.10;100.00
13367;BME280;6752;52.612;13.630;2024-01-25T15:00:26;101588.30;;;7.97;100.00
13367;BME280;6752;52.612;13.630;2024-01-25T15:05:29;101587.53;;;7.89;100.00
13367;BME280;6752;52.612;13.630;2024-01-25T15:10:31;101591.83;;;7.79;100.00
13367;BME280;6752;52.612;13.630;2024-01-25T15:15:34;101598.86;;;7.69;100.00
13367;BME280;6752;52.612;13.630;2024-01-25T15:20:36;101612.34;;;7.70;100.00
13367;BME280;6752;52.612;13.630;2024-01-25T15:25:38;101614.23;;;7.77;100.00
13367;BME280;6752;52.612;13.630;2024-01-25T15:30:43;101630.55;;;7.73;100.00
13367;BME280;6752;52.612;13.630;2024-01-25T15:35:46;101630.37;;;7.75;100.00
13367;BME280;6752;52.612;13.630;2024-01-25T15:40:48;101643.67;;;7.77;100.00
13367;BME280;6752;52.612;13.630;2024-01-25T15:45:50;101649.58;;;7.80;100.00
13367;BME280;6752;52.612;13.630;2024-01-25T15:50:53;101661.38;;;7.84;100.00
13367;BME280;6752;52.612;13.630;2024-01-25T15:55:56;101669.45;;;7.81;100.00
13367;BME280;6752;52.612;13.630;2024-01-25T16:00:59;101684.02;;;7.80;100.00
13367;BME280;6752;52.612;13.630;2024-01-25T16:06:01;101685.23;;;7.77;100.00
13367;BME280;6752;52.612;13.630;2024-01-25T16:11:03;101699.22;;;7.78;100.00
13367;BME280;6752;52.612;13.630;2024-01-25T16:16:06;101700.42;;;7.75;100.00
13367;BME280;6752;52.612;13.630;2024-01-25T16:21:08;101693.06;;;7.72;100.00
13367;BME280;6752;52.612;13.630;2024-01-25T16:26:10;101710.02;;;7.74;100.00
13367;BME280;6752;52.612;13.630;2024-01-25T16:31:13;101715.77;;;7.75;100.00
13367;BME280;6752;52.612;13.630;2024-01-25T16:36:15;101714.66;;;7.77;100.00
13367;BME280;6752;52.612;13.630;2024-01-25T16:41:18;101714.11;;;7.70;100.00
13367;BME280;6752;52.612;13.630;2024-01-25T16:46:20;101714.51;;;7.75;100.00
13367;BME280;6752;52.612;13.630;2024-01-25T16:51:22;101725.14;;;7.69;100.00
13367;BME280;6752;52.612;13.630;2024-01-25T16:56:25;101730.64;;;7.72;100.00
13367;BME280;6752;52.612;13.630;2024-01-25T17:01:27;101725.05;;;7.69;100.00
13367;BME280;6752;52.612;13.630;2024-01-25T17:06:29;101727.33;;;7.58;100.00
13367;BME280;6752;52.612;13.630;2024-01-25T17:11:32;101733.09;;;7.59;100.00
13367;BME280;6752;52.612;13.630;2024-01-25T17:16:34;101735.71;;;7.60;100.00
13367;BME280;6752;52.612;13.630;2024-01-25T17:21:37;101742.57;;;7.55;100.00
13367;BME280;6752;52.612;13.630;2024-01-25T17:26:39;101746.97;;;7.64;100.00
13367;BME280;6752;52.612;13.630;2024-01-25T17:31:41;101753.57;;;7.65;100.00
13367;BME280;6752;52.612;13.630;2024-01-25T17:36:44;101753.34;;;7.55;100.00
13367;BME280;6752;52.612;13.630;2024-01-25T17:41:46;101751.68;;;7.46;100.00
13367;BME280;6752;52.612;13.630;2024-01-25T17:46:48;101747.10;;;7.47;100.00
13367;BME280;6752;52.612;13.630;2024-01-25T17:51:51;101749.00;;;7.38;100.00
13367;BME280;6752;52.612;13.630;2024-01-25T17:56:53;101753.66;;;7.41;100.00
13367;BME280;6752;52.612;13.630;2024-01-25T18:01:55;101767.55;;;7.42;100.00
13367;BME280;6752;52.612;13.630;2024-01-25T18:06:58;101767.22;;;7.41;100.00
13367;BME280;6752;52.612;13.630;2024-01-25T18:12:00;101776.34;;;7.48;100.00
13367;BME280;6752;52.612;13.630;2024-01-25T18:17:03;101772.39;;;7.39;100.00
13367;BME280;6752;52.612;13.630;2024-01-25T18:22:05;101775.83;;;7.49;100.00
13367;BME280;6752;52.612;13.630;2024-01-25T18:27:07;101781.19;;;7.45;100.00
13367;BME280;6752;52.612;13.630;2024-01-25T18:32:10;101775.03;;;7.36;100.00
13367;BME280;6752;52.612;13.630;2024-01-25T18:37:12;101777.99;;;7.30;100.00
13367;BME280;6752;52.612;13.630;2024-01-25T18:42:14;101772.19;;;7.17;100.00
13367;BME280;6752;52.612;13.630;2024-01-25T18:47:17;101780.66;;;7.18;100.00
13367;BME280;6752;52.612;13.630;2024-01-25T18:52:19;101780.16;;;7.15;100.00
13367;BME280;6752;52.612;13.630;2024-01-25T18:57:22;101778.38;;;7.14;100.00
13367;BME280;6752;52.612;13.630;2024-01-25T19:02:24;101776.52;;;7.03;100.00
13367;BME280;6752;52.612;13.630;2024-01-25T19:07:26;101779.05;;;7.04;100.00
13367;BME280;6752;52.612;13.630;2024-01-25T19:12:29;101773.31;;;6.91;100.00
13367;BME280;6752;52.612;13.630;2024-01-25T19:17:31;101763.98;;;6.85;100.00
13367;BME280;6752;52.612;13.630;2024-01-25T19:22:34;101766.62;;;6.74;100.00
13367;BME280;6752;52.612;13.630;2024-01-25T19:27:36;101754.84;;;6.74;100.00
13367;BME280;6752;52.612;13.630;2024-01-25T19:32:38;101771.28;;;6.65;100.00
13367;BME280;6752;52.612;13.630;2024-01-25T19:37:41;101774.30;;;6.53;100.00
13367;BME280;6752;52.612;13.630;2024-01-25T19:42:43;101785.48;;;6.54;100.00
13367;BME280;6752;52.612;13.630;2024-01-25T19:47:45;101790.05;;;6.58;100.00
13367;BME280;6752;52.612;13.630;2024-01-25T19:52:49;101796.83;;;6.50;100.00
13367;BME280;6752;52.612;13.630;2024-01-25T19:57:56;101801.48;;;6.40;100.00
13367;BME280;6752;52.612;13.630;2024-01-25T20:02:58;101803.17;;;6.41;100.00
13367;BME280;6752;52.612;13.630;2024-01-25T20:08:00;101795.98;;;6.45;100.00
13367;BME280;6752;52.612;13.630;2024-01-25T20:13:03;101791.66;;;6.39;100.00
13367;BME280;6752;52.612;13.630;2024-01-25T20:18:05;101798.69;;;6.45;100.00
13367;BME280;6752;52.612;13.630;2024-01-25T20:23:07;101796.23;;;6.47;100.00
13367;BME280;6752;52.612;13.630;2024-01-25T20:28:12;101803.77;;;6.52;100.00
13367;BME280;6752;52.612;13.630;2024-01-25T20:33:15;101793.10;;;6.47;100.00
13367;BME280;6752;52.612;13.630;2024-01-25T20:38:16;101790.73;;;6.40;100.00
13367;BME280;6752;52.612;13.630;2024-01-25T20:43:19;101796.34;;;6.21;100.00
13367;BME280;6752;52.612;13.630;2024-01-25T20:48:21;101793.13;;;6.18;100.00
13367;BME280;6752;52.612;13.630;2024-01-25T20:53:23;101789.53;;;6.09;100.00
13367;BME280;6752;52.612;13.630;2024-01-25T20:58:26;101782.05;;;5.95;100.00
13367;BME280;6752;52.612;13.630;2024-01-25T21:03:28;101789.84;;;5.94;100.00
13367;BME280;6752;52.612;13.630;2024-01-25T21:08:31;101786.28;;;5.88;100.00
13367;BME280;6752;52.612;13.630;2024-01-25T21:13:33;101795.15;;;5.81;100.00
13367;BME280;6752;52.612;13.630;2024-01-25T21:18:35;101813.14;;;5.78;100.00
13367;BME280;6752;52.612;13.630;2024-01-25T21:23:38;101815.19;;;5.67;100.00
13367;BME280;6752;52.612;13.630;2024-01-25T21:28:40;101811.92;;;5.68;100.00
13367;BME280;6752;52.612;13.630;2024-01-25T21:33:43;101807.66;;;5.65;100.00
13367;BME280;6752;52.612;13.630;2024-01-25T21:38:45;101807.90;;;5.76;100.00
13367;BME280;6752;52.612;13.630;2024-01-25T21:43:47;101813.90;;;5.75;100.00
13367;BME280;6752;52.612;13.630;2024-01-25T21:48:50;101810.09;;;5.73;100.00
13367;BME280;6752;52.612;13.630;2024-01-25T21:53:52;101817.05;;;5.66;100.00
13367;BME280;6752;52.612;13.630;2024-01-25T21:58:55;101817.39;;;5.67;100.00
13367;BME280;6752;52.612;13.630;2024-01-25T22:03:57;101819.63;;;5.59;100.00
13367;BME280;6752;52.612;13.630;2024-01-25T22:08:59;101823.35;;;5.71;100.00
13367;BME280;6752;52.612;13.630;2024-01-25T22:14:02;101818.56;;;5.65;100.00
13367;BME280;6752;52.612;13.630;2024-01-25T22:19:04;101820.05;;;5.68;100.00
13367;BME280;6752;52.612;13.630;2024-01-25T22:24:06;101822.18;;;5.60;100.00
13367;BME280;6752;52.612;13.630;2024-01-25T22:29:10;101820.84;;;5.64;100.00
13367;BME280;6752;52.612;13.630;2024-01-25T22:34:12;101822.27;;;5.64;100.00
13367;BME280;6752;52.612;13.630;2024-01-25T22:39:14;101814.48;;;5.61;100.00
13367;BME280;6752;52.612;13.630;2024-01-25T22:44:17;101824.19;;;5.28;100.00
13367;BME280;6752;52.612;13.630;2024-01-25T22:49:19;101830.68;;;5.05;100.00
13367;BME280;6752;52.612;13.630;2024-01-25T22:54:22;101830.95;;;4.89;100.00
13367;BME280;6752;52.612;13.630;2024-01-25T22:59:24;101831.23;;;4.64;100.00
13367;BME280;6752;52.612;13.630;2024-01-25T23:04:26;101834.23;;;4.70;100.00
13367;BME280;6752;52.612;13.630;2024-01-25T23:09:29;101834.31;;;4.69;100.00
13367;BME280;6752;52.612;13.630;2024-01-25T23:14:31;101844.26;;;4.73;100.00
13367;BME280;6752;52.612;13.630;2024-01-25T23:19:33;101836.91;;;4.57;100.00
13367;BME280;6752;52.612;13.630;2024-01-25T23:24:36;101842.41;;;4.42;100.00
13367;BME280;6752;52.612;13.630;2024-01-25T23:29:38;101844.47;;;4.62;100.00
13367;BME280;6752;52.612;13.630;2024-01-25T23:34:41;101846.09;;;4.55;100.00
13367;BME280;6752;52.612;13.630;2024-01-25T23:39:43;101849.81;;;4.49;100.00
13367;BME280;6752;52.612;13.630;2024-01-25T23:44:45;101847.06;;;4.27;100.00
13367;BME280;6752;52.612;13.630;2024-01-25T23:49:48;101841.40;;;4.21;100.00
13367;BME280;6752;52.612;13.630;2024-01-25T23:54:50;101841.16;;;4.14;100.00
13367;BME280;6752;52.612;13.630;2024-01-25T23:59:52;101843.25;;;4.20;100.00
